Time;durP1;ratioP1;P1;durP2;ratioP2;P2;SDS_P1;SDS_P2;PMS_P1;PMS_P2;Temp;Humidity;BMP_temperature;BMP_pressure;BME280_temperature;BME280_humidity;BME280_pressure;Samples;Min_cycle;Max_cycle;Signal;HPM_P1;HPM_P2
2023/03/21 00:01:14;;;;;;;8.95;8.05;;;;;;;;;;5084411;28;20135;-77
2023/03/21 00:03:43;;;;;;;11.23;9.35;;;;;;;;;;5074041;28;20045;-77
2023/03/21 00:06:13;;;;;;;10.48;8.70;;;;;;;;;;5086881;28;20052;-76
2023/03/21 00:08:41;;;;;;;10.30;8.52;;;;;;;;;;5088923;28;20040;-76
2023/03/21 00:11:11;;;;;;;14.93;9.38;;;;;;;;;;5057328;28;20349;-76
2023/03/21 00:13:41;;;;;;;9.93;8.88;;;;;;;;;;5082690;28;20428;-75
2023/03/21 00:16:14;;;;;;;12.68;10.38;;;;;;;;;;5070070;28;20050;-76
2023/03/21 00:18:45;;;;;;;13.07;10.02;;;;;;;;;;5079314;28;20054;-76
2023/03/21 00:21:16;;;;;;;10.93;9.77;;;;;;;;;;5055160;28;20044;-77
2023/03/21 00:23:46;;;;;;;12.75;10.25;;;;;;;;;;5091006;28;20071;-76
2023/03/21 00:26:16;;;;;;;11.90;10.18;;;;;;;;;;5089550;28;20055;-77
2023/03/21 00:28:44;;;;;;;12.45;10.20;;;;;;;;;;5059262;28;20040;-77
2023/03/21 00:31:13;;;;;;;11.88;10.30;;;;;;;;;;5070402;28;20051;-76
2023/03/21 00:33:43;;;;;;;12.85;10.45;;;;;;;;;;5053267;28;20048;-77
2023/03/21 00:36:14;;;;;;;11.90;9.95;;;;;;;;;;5056993;28;20044;-76
2023/03/21 00:38:42;;;;;;;12.05;9.77;;;;;;;;;;5084295;28;20082;-77
2023/03/21 00:41:13;;;;;;;13.23;10.20;;;;;;;;;;5055457;28;20040;-79
2023/03/21 00:43:41;;;;;;;13.45;10.35;;;;;;;;;;5074779;28;20135;-80
2023/03/21 00:46:09;;;;;;;15.82;11.10;;;;;;;;;;5077599;28;20382;-80
2023/03/21 00:48:36;;;;;;;12.65;10.52;;;;;;;;;;5071495;28;20049;-79
2023/03/21 00:51:14;;;;;;;13.18;11.15;;;;;;;;;;5055286;28;20099;-79
2023/03/21 00:53:42;;;;;;;13.68;11.32;;;;;;;;;;5047129;28;20043;-79
2023/03/21 00:56:10;;;;;;;15.00;11.80;;;;;;;;;;5092005;28;20053;-79
2023/03/21 00:58:43;;;;;;;12.90;11.25;;;;;;;;;;5049174;28;20051;-79
2023/03/21 01:01:10;;;;;;;14.77;11.47;;;;;;;;;;5074055;28;20052;-79
2023/03/21 01:03:41;;;;;;;16.23;12.07;;;;;;;;;;5090616;28;20294;-78
2023/03/21 01:06:18;;;;;;;13.10;11.05;;;;;;;;;;5090758;28;20504;-79
2023/03/21 01:08:46;;;;;;;15.48;12.50;;;;;;;;;;5077201;28;20598;-79
2023/03/21 01:11:17;;;;;;;13.68;11.60;;;;;;;;;;5069755;28;20056;-79
2023/03/21 01:13:46;;;;;;;14.57;12.00;;;;;;;;;;5051348;28;20048;-78
2023/03/21 01:16:14;;;;;;;12.80;10.57;;;;;;;;;;5082175;28;20066;-78
2023/03/21 01:18:42;;;;;;;12.20;10.38;;;;;;;;;;5085870;28;20052;-79
2023/03/21 01:21:12;;;;;;;13.45;11.20;;;;;;;;;;5082751;28;20122;-79
2023/03/21 01:23:43;;;;;;;13.25;10.73;;;;;;;;;;5057043;28;20490;-78
2023/03/21 01:26:12;;;;;;;12.38;10.68;;;;;;;;;;5063163;28;20067;-79
2023/03/21 01:28:41;;;;;;;13.48;10.52;;;;;;;;;;5048714;28;20064;-78
2023/03/21 01:31:11;;;;;;;11.63;10.10;;;;;;;;;;5083291;28;20052;-79
2023/03/21 01:33:38;;;;;;;11.00;9.77;;;;;;;;;;5091522;28;20109;-79
2023/03/21 01:36:07;;;;;;;10.65;9.13;;;;;;;;;;5094187;28;20051;-80
2023/03/21 01:38:35;;;;;;;10.93;8.55;;;;;;;;;;5073948;28;20555;-81
2023/03/21 01:41:05;;;;;;;8.15;6.88;;;;;;;;;;5054809;28;20106;-81
2023/03/21 01:43:41;;;;;;;10.27;7.68;;;;;;;;;;5072216;28;20527;-81
2023/03/21 01:46:48;;;;;;;8.63;6.97;;;;;;;;;;5075889;28;20106;-80
2023/03/21 01:49:37;;;;;;;7.90;6.43;;;;;;;;;;5041582;28;20524;-80
2023/03/21 01:52:22;;;;;;;5.00;3.72;;;;;;;;;;5063501;28;20408;-81
2023/03/21 01:54:53;;;;;;;2.75;2.55;;;;;;;;;;5056038;28;20044;-79
2023/03/21 01:57:31;;;;;;;2.67;2.33;;;;;;;;;;5055172;28;20540;-77
2023/03/21 02:00:11;;;;;;;1.73;1.35;;;;;;;;;;5045833;28;20048;-78
2023/03/21 02:02:58;;;;;;;2.05;1.10;;;;;;;;;;5072174;28;20087;-77
2023/03/21 02:05:55;;;;;;;2.47;0.70;;;;;;;;;;5074470;28;20492;-77
2023/03/21 02:08:26;;;;;;;0.55;0.55;;;;;;;;;;5074250;28;20132;-78
2023/03/21 02:10:54;;;;;;;0.40;0.40;;;;;;;;;;5079547;28;20044;-79
2023/03/21 02:13:35;;;;;;;0.50;0.50;;;;;;;;;;5055015;28;20040;-79
2023/03/21 02:16:14;;;;;;;0.40;0.30;;;;;;;;;;5070956;28;20142;-78
2023/03/21 02:18:56;;;;;;;0.40;0.40;;;4.60;99.90;;;;;;5053229;28;20140;-77
2023/03/21 02:22:04;;;;;;;0.50;0.45;;;4.50;99.90;;;;;;5086675;28;20048;-77
2023/03/21 02:25:20;;;;;;;0.60;0.45;;;4.40;99.90;;;;;;5038417;28;20056;-77
2023/03/21 02:27:51;;;;;;;1.42;0.73;;;4.20;99.90;;;;;;5075159;28;20523;-78
2023/03/21 02:30:55;;;;;;;0.88;0.60;;;4.20;99.90;;;;;;5068198;28;20134;-78
2023/03/21 02:34:03;;;;;;;0.52;0.50;;;4.20;99.90;;;;;;5079803;28;20517;-79
2023/03/21 02:37:11;;;;;;;0.40;0.30;;;4.10;99.90;;;;;;5063776;28;20058;-79
2023/03/21 02:39:55;;;;;;;0.40;0.30;;;4.10;99.90;;;;;;5071154;28;20072;-78
2023/03/21 02:42:29;;;;;;;0.52;0.45;;;4.00;99.90;;;;;;5063795;28;20056;-78
2023/03/21 02:45:03;;;;;;;0.90;0.30;;;4.00;99.90;;;;;;5054926;28;20044;-78
2023/03/21 02:47:39;;;;;;;0.68;0.45;;;4.00;99.90;;;;;;5070317;28;20033;-79
2023/03/21 02:50:13;;;;;;;1.52;0.55;;;3.90;99.90;;;;;;5054655;28;20110;-79
2023/03/21 02:52:46;;;;;;;1.48;0.80;;;3.80;99.90;;;;;;5054179;28;20045;-78
2023/03/21 02:55:18;;;;;;;1.67;0.40;;;3.80;99.90;;;;;;5071717;28;20055;-78
2023/03/21 02:57:58;;;;;;;0.30;0.30;;;3.80;99.90;;;;;;5072077;28;20043;-78
2023/03/21 03:00:31;;;;;;;0.80;0.45;;;3.70;99.90;;;;;;5069742;28;20067;-79
2023/03/21 03:03:00;;;;;;;0.32;0.30;;;3.70;99.90;;;;;;5069350;28;20142;-80
2023/03/21 03:05:31;;;;;;;1.98;0.38;;;3.70;99.90;;;;;;5073981;28;20048;-79
2023/03/21 03:08:24;;;;;;;1.98;0.40;;;3.60;99.90;;;;;;5057957;28;20508;-80
2023/03/21 03:11:07;;;;;;;0.40;0.40;;;3.60;99.90;;;;;;5091556;28;20143;-82
2023/03/21 03:14:01;;;;;;;0.20;0.20;;;3.60;99.90;;;;;;5072902;28;20040;-80
2023/03/21 03:16:39;;;;;;;0.50;0.40;;;3.60;99.90;;;;;;5071291;28;20504;-79
2023/03/21 03:19:11;;;;;;;0.43;0.32;;;3.60;99.90;;;;;;5089175;28;20044;-78
2023/03/21 03:21:42;;;;;;;2.10;0.50;;;3.60;99.90;;;;;;5071883;28;20504;-79
2023/03/21 03:24:16;;;;;;;0.40;0.40;;;3.50;99.90;;;;;;5088537;28;20044;-79
2023/03/21 03:26:51;;;;;;;0.35;0.30;;;3.40;99.90;;;;;;5073709;28;20060;-79
2023/03/21 03:29:22;;;;;;;0.30;0.30;;;3.40;99.90;;;;;;5078160;28;20063;-79
2023/03/21 03:31:56;;;;;;;0.52;0.32;;;3.50;99.90;;;;;;5074068;28;20062;-79
2023/03/21 03:34:31;;;;;;;0.68;0.35;;;3.50;99.90;;;;;;5067992;28;20098;-80
2023/03/21 03:37:04;;;;;;;0.70;0.40;;;3.50;99.90;;;;;;5079528;28;20532;-79
2023/03/21 03:39:41;;;;;;;1.42;0.57;;;3.50;99.90;;;;;;5063381;28;20088;-78
2023/03/21 03:42:15;;;;;;;0.45;0.30;;;3.50;99.90;;;;;;5042337;28;20062;-79
2023/03/21 03:44:46;;;;;;;2.38;0.63;;;3.50;99.90;;;;;;5057126;28;20543;-79
2023/03/21 03:47:22;;;;;;;0.45;0.45;;;3.50;99.90;;;;;;5054455;28;20143;-79
2023/03/21 03:49:58;;;;;;;0.40;0.40;;;3.50;99.90;;;;;;5053791;28;20048;-79
2023/03/21 03:52:31;;;;;;;0.82;0.43;;;3.50;99.90;;;;;;5072598;28;20048;-79
2023/03/21 03:55:07;;;;;;;1.40;0.60;;;3.40;99.90;;;;;;5074273;28;20507;-79
2023/03/21 03:57:38;;;;;;;0.50;0.50;;;3.40;99.90;;;;;;5072886;28;20187;-79
2023/03/21 04:00:10;;;;;;;0.43;0.43;;;3.50;99.90;;;;;;5073122;28;20512;-78
2023/03/21 04:02:52;;;;;;;1.02;0.55;;;3.40;99.90;;;;;;5085267;28;20048;-79
2023/03/21 04:05:23;;;;;;;1.35;0.30;;;3.40;99.90;;;;;;5085025;28;20135;-79
2023/03/21 04:07:51;;;;;;;2.67;0.55;;;3.40;99.90;;;;;;5052505;28;20402;-76
2023/03/21 04:10:27;;;;;;;0.40;0.40;;;3.40;99.90;;;;;;5068683;28;20044;-79
2023/03/21 04:12:55;;;;;;;1.25;0.40;;;3.40;99.90;;;;;;5075917;28;20052;-79
2023/03/21 04:15:37;;;;;;;2.47;0.60;;;3.40;99.90;;;;;;5055164;28;20507;-80
2023/03/21 04:18:11;;;;;;;0.73;0.50;;;3.40;99.90;;;;;;5074425;28;20147;-82
2023/03/21 04:20:39;;;;;;;0.90;0.57;;;3.30;99.90;;;;;;5078040;28;20060;-82
2023/03/21 04:23:08;;;;;;;1.50;0.45;;;3.30;99.90;;;;;;5072038;28;20079;-81
2023/03/21 04:25:39;;;;;;;0.98;0.50;;;3.30;99.90;;;;;;5091109;28;20044;-81
2023/03/21 04:28:07;;;;;;;0.45;0.30;;;3.30;99.90;;;;;;5088275;28;20489;-82
2023/03/21 04:30:40;;;;;;;1.75;0.90;;;3.30;99.90;;;;;;5077011;28;20051;-81
2023/03/21 04:33:12;;;;;;;1.77;0.60;;;3.30;99.90;;;;;;5073523;28;20451;-80
2023/03/21 04:35:48;;;;;;;0.40;0.40;;;3.30;99.90;;;;;;5056393;28;20048;-82
2023/03/21 04:38:15;;;;;;;1.83;0.60;;;3.30;99.90;;;;;;5078489;28;20052;-82
2023/03/21 04:40:45;;;;;;;1.00;0.40;;;3.30;99.90;;;;;;5058335;28;20087;-81
2023/03/21 04:43:12;;;;;;;2.45;1.23;;;3.30;99.90;;;;;;5076179;28;20520;-80
2023/03/21 04:45:44;;;;;;;1.17;0.55;;;3.30;99.90;;;;;;5067294;28;20050;-77
2023/03/21 04:48:13;;;;;;;1.88;0.90;;;3.30;99.90;;;;;;5058290;28;20091;-76
2023/03/21 04:50:41;;;;;;;2.90;0.70;;;3.30;99.90;;;;;;5071088;28;20063;-75
2023/03/21 04:53:11;;;;;;;2.30;0.70;;;3.30;99.90;;;;;;5092044;28;20463;-74
2023/03/21 04:55:39;;;;;;;3.63;0.80;;;3.30;99.90;;;;;;5074194;28;20055;-81
2023/03/21 04:58:08;;;;;;;4.53;0.70;;;3.30;99.90;;;;;;5094962;28;20048;-75
2023/03/21 05:00:37;;;;;;;2.45;0.68;;;3.30;99.90;;;;;;5087526;28;20147;-80
2023/03/21 05:03:07;;;;;;;0.55;0.55;;;3.40;99.90;;;;;;5089562;28;20560;-76
2023/03/21 05:05:36;;;;;;;1.38;0.38;;;3.40;99.90;;;;;;5087440;28;20429;-79
2023/03/21 05:08:05;;;;;;;2.72;0.52;;;3.40;99.90;;;;;;5074645;28;20043;-80
2023/03/21 05:10:33;;;;;;;1.60;0.63;;;3.40;99.90;;;;;;5086601;28;20587;-84
2023/03/21 05:13:01;;;;;;;3.03;1.08;;;3.40;99.90;;;;;;5076643;28;20044;-81
2023/03/21 05:15:30;;;;;;;1.05;0.63;;;3.40;99.90;;;;;;5069115;28;20483;-80
2023/03/21 05:17:58;;;;;;;3.20;1.00;;;3.50;99.90;;;;;;5090941;28;20032;-81
2023/03/21 05:20:25;;;;;;;2.35;0.70;;;3.50;99.90;;;;;;5073957;28;20044;-80
2023/03/21 05:22:53;;;;;;;4.40;0.80;;;3.50;99.90;;;;;;5056437;28;20150;-81
2023/03/21 05:25:34;;;;;;;1.58;0.80;;;3.50;99.90;;;;;;5039022;28;20044;-81
2023/03/21 05:28:16;;;;;;;1.38;1.25;;;3.40;99.90;;;;;;5072338;28;20048;-80
2023/03/21 05:30:47;;;;;;;1.37;0.77;;;3.50;99.90;;;;;;5075915;28;20044;-80
2023/03/21 05:33:15;;;;;;;2.80;1.40;;;3.50;99.90;;;;;;5073995;28;20051;-77
2023/03/21 05:35:42;;;;;;;1.20;0.70;;;3.50;99.90;;;;;;5072567;28;20118;-78
2023/03/21 05:38:12;;;;;;;1.88;1.00;;;3.50;99.90;;;;;;5056678;28;20052;-77
2023/03/21 05:40:50;;;;;;;0.80;0.60;;;3.50;99.90;;;;;;5073152;28;20143;-77
2023/03/21 05:43:18;;;;;;;2.22;0.70;;;3.60;99.90;;;;;;5083311;28;20056;-77
2023/03/21 05:45:48;;;;;;;2.35;1.00;;;3.60;99.90;;;;;;5073628;28;20408;-77
2023/03/21 05:48:18;;;;;;;1.58;0.80;;;3.70;99.90;;;;;;5053393;28;20049;-77
2023/03/21 05:51:10;;;;;;;2.72;0.90;;;3.70;99.90;;;;;;5063325;28;20052;-77
2023/03/21 05:53:37;;;;;;;2.47;1.00;;;3.80;99.90;;;;;;5047088;28;20048;-77
2023/03/21 05:56:07;;;;;;;1.67;0.88;;;3.80;99.90;;;;;;5081983;28;20068;-77
2023/03/21 05:58:57;;;;;;;1.95;0.90;;;3.90;99.90;;;;;;5056338;28;20044;-77
2023/03/21 06:01:27;;;;;;;0.82;0.77;;;3.90;99.90;;;;;;5090174;28;20079;-78
2023/03/21 06:04:06;;;;;;;1.15;0.75;;;3.90;99.90;;;;;;5072268;28;20139;-79
2023/03/21 06:06:34;;;;;;;1.50;1.10;;;3.90;99.90;;;;;;5066858;28;20044;-76
2023/03/21 06:09:03;;;;;;;1.17;0.80;;;3.90;99.90;;;;;;5055487;28;20107;-76
2023/03/21 06:11:36;;;;;;;2.58;1.00;;;3.90;99.90;;;;;;5066708;28;20054;-76
2023/03/21 06:14:29;;;;;;;1.15;1.05;;;3.90;99.90;;;;;;5043952;28;20048;-76
2023/03/21 06:17:17;;;;;;;2.08;1.00;;;4.00;99.90;;;;;;5093685;28;20496;-77
2023/03/21 06:19:51;;;;;;;1.67;1.10;;;4.00;99.90;;;;;;5059534;28;20044;-77
2023/03/21 06:22:29;;;;;;;4.10;1.98;;;4.10;99.90;;;;;;5072144;28;20162;-77
2023/03/21 06:24:57;;;;;;;3.75;1.13;;;4.20;99.90;;;;;;5074818;28;20122;-77
2023/03/21 06:27:25;;;;;;;2.40;1.60;;;4.20;99.90;;;;;;5092778;28;20044;-81
2023/03/21 06:29:56;;;;;;;3.40;1.65;;;4.20;99.90;;;;;;5074893;28;20048;-79
2023/03/21 06:32:27;;;;;;;4.78;1.77;;;4.30;99.90;;;;;;5069367;28;20508;-79
2023/03/21 06:34:59;;;;;;;3.75;1.30;;;4.40;99.90;;;;;;5091945;28;20106;-79
2023/03/21 06:37:27;;;;;;;1.27;1.13;;;4.40;99.90;;;;;;5091807;28;20098;-79
2023/03/21 06:39:55;;;;;;;2.20;1.00;;;4.50;99.90;;;;;;5068502;28;20044;-81
2023/03/21 06:42:23;;;;;;;1.20;1.10;;;4.50;99.90;;;;;;5091505;28;20048;-76
2023/03/21 06:44:52;;;;;;;2.88;1.20;;;4.60;99.90;;;;;;5071037;28;20052;-77
2023/03/21 06:47:19;;;;;;;3.55;1.27;;;4.60;99.90;;;;;;5080620;28;20416;-81
2023/03/21 06:49:49;;;;;;;3.28;1.35;;;4.70;99.90;;;;;;5070184;28;20059;-77
2023/03/21 06:52:16;;;;;;;2.72;1.02;;;4.80;99.90;;;;;;5073910;28;20093;-79
2023/03/21 06:54:44;;;;;;;1.40;1.30;;;4.80;99.90;;;;;;5073252;28;20094;-79
2023/03/21 06:57:14;;;;;;;1.58;1.42;;;4.80;99.90;;;;;;5071028;28;20048;-79
2023/03/21 06:59:42;;;;;;;1.30;1.20;;;4.90;99.90;;;;;;5077863;28;20043;-78
2023/03/21 07:02:14;;;;;;;2.85;1.30;;;4.90;99.90;;;;;;5057975;28;20047;-80
2023/03/21 07:04:49;;;;;;;4.90;2.05;;;4.90;99.90;;;;;;5073173;28;20040;-79
2023/03/21 07:07:26;;;;;;;3.25;2.15;;;4.90;99.90;;;;;;5059177;28;20122;-79
2023/03/21 07:09:53;;;;;;;2.00;1.65;;;4.80;99.90;;;;;;5074713;28;20052;-80
2023/03/21 07:12:22;;;;;;;1.42;1.33;;;4.80;99.90;;;;;;5074039;28;20116;-79
2023/03/21 07:15:09;;;;;;;2.22;1.98;;;4.80;99.90;;;;;;5072196;28;20044;-80
2023/03/21 07:17:38;;;;;;;1.45;1.35;;;4.80;99.90;;;;;;5046673;28;20416;-81
2023/03/21 07:20:08;;;;;;;2.13;1.70;;;4.90;99.90;;;;;;5075430;28;20039;-81
2023/03/21 07:22:36;;;;;;;3.00;1.30;;;5.10;99.90;;;;;;5108247;28;20105;-80
2023/03/21 07:25:04;;;;;;;2.75;1.30;;;5.20;99.90;;;;;;5093777;28;20052;-80
2023/03/21 07:27:33;;;;;;;3.70;1.48;;;5.30;99.90;;;;;;5068988;28;20047;-81
2023/03/21 07:30:01;;;;;;;3.15;1.58;;;5.30;99.90;;;;;;5083665;28;20052;-81
2023/03/21 07:32:32;;;;;;;4.82;4.50;;;5.40;99.90;;;;;;5073550;28;20138;-82
2023/03/21 07:35:00;;;;;;;1.95;1.40;;;5.40;99.90;;;;;;5088210;28;20055;-82
2023/03/21 07:37:28;;;;;;;3.58;2.08;;;5.30;99.90;;;;;;5088146;28;20073;-81
2023/03/21 07:39:57;;;;;;;3.10;1.85;;;5.20;99.90;;;;;;5050795;28;20420;-79
2023/03/21 07:42:26;;;;;;;3.83;1.85;;;5.20;99.90;;;;;;5066873;28;20052;-80
2023/03/21 07:45:00;;;;;;;2.58;1.90;;;5.20;99.90;;;;;;5062760;28;20066;-78
2023/03/21 07:47:33;;;;;;;1.85;1.65;;;5.30;99.90;;;;;;5089330;28;20040;-78
2023/03/21 07:50:03;;;;;;;2.45;1.60;;;5.40;99.90;;;;;;5082289;28;20058;-80
2023/03/21 07:52:32;;;;;;;1.63;1.52;;;5.50;99.90;;;;;;5091651;28;20047;-80
2023/03/21 07:55:00;;;;;;;2.25;1.92;;;5.60;99.90;;;;;;5086445;28;20060;-78
2023/03/21 07:57:27;;;;;;;9.80;3.67;;;5.70;99.90;;;;;;5074079;28;20048;-77
2023/03/21 07:59:55;;;;;;;4.60;2.38;;;5.80;99.90;;;;;;5088139;28;20063;-77
2023/03/21 08:02:23;;;;;;;2.65;1.70;;;5.90;99.90;;;;;;5076053;28;20044;-78
2023/03/21 08:04:51;;;;;;;5.65;2.50;;;6.00;99.90;;;;;;5068264;28;20049;-77
2023/03/21 08:07:18;;;;;;;2.22;2.08;;;6.20;99.90;;;;;;5069950;28;20085;-77
2023/03/21 08:09:47;;;;;;;2.60;1.60;;;6.90;99.90;;;;;;5071242;28;20079;-77
2023/03/21 08:12:15;;;;;;;5.10;3.80;;;7.80;99.90;;;;;;5070544;28;20554;-77
2023/03/21 08:14:43;;;;;;;2.63;2.13;;;8.10;99.90;;;;;;5054596;28;20052;-77
2023/03/21 08:17:10;;;;;;;4.50;2.13;;;8.30;99.90;;;;;;5071247;28;20048;-77
2023/03/21 08:19:38;;;;;;;3.28;2.00;;;8.30;99.90;;;;;;5089507;28;20283;-77
2023/03/21 08:22:09;;;;;;;2.13;1.80;;;8.20;99.90;;;;;;5054377;28;20056;-76
2023/03/21 08:24:37;;;;;;;3.03;1.98;;;7.90;99.90;;;;;;5089107;28;20053;-77
2023/03/21 08:27:11;;;;;;;2.67;1.83;;;7.60;99.90;;;;;;5087248;28;20131;-78
2023/03/21 08:29:41;;;;;;;1.80;1.58;;;7.30;99.90;;;;;;5084538;28;20154;-77
2023/03/21 08:32:09;;;;;;;2.78;1.63;;;7.10;99.90;;;;;;5069154;28;20421;-77
2023/03/21 08:34:36;;;;;;;4.63;2.33;;;7.00;99.90;;;;;;5069529;28;20052;-76
2023/03/21 08:37:03;;;;;;;3.85;1.70;;;6.80;99.90;;;;;;5087997;28;20126;-77
2023/03/21 08:39:31;;;;;;;2.53;2.15;;;6.80;99.90;;;;;;5066434;28;20063;-77
2023/03/21 08:41:58;;;;;;;1.40;1.30;;;6.70;99.90;;;;;;5089538;28;20139;-77
2023/03/21 08:44:27;;;;;;;2.25;1.80;;;6.60;99.90;;;;;;5072361;28;20086;-77
2023/03/21 08:46:55;;;;;;;2.78;1.95;;;6.50;99.90;;;;;;5090124;28;20419;-77
2023/03/21 08:49:22;;;;;;;4.72;1.92;;;6.40;99.90;;;;;;5059586;28;20048;-77
2023/03/21 08:51:50;;;;;;;3.10;2.20;;;6.40;99.90;;;;;;5069118;28;20111;-77
2023/03/21 08:54:22;;;;;;;3.10;1.77;;;6.30;99.90;;;;;;5068066;28;20052;-77
2023/03/21 08:56:49;;;;;;;3.88;1.83;;;6.40;99.90;;;;;;5068720;28;20063;-77
2023/03/21 08:59:17;;;;;;;3.47;2.00;;;6.40;99.90;;;;;;5054220;28;20044;-77
2023/03/21 09:01:46;;;;;;;3.17;2.17;;;6.40;99.90;;;;;;5069459;28;20057;-77
2023/03/21 09:04:13;;;;;;;4.60;2.35;;;6.30;99.90;;;;;;5070009;28;20472;-77
2023/03/21 09:06:44;;;;;;;1.98;1.63;;;6.40;99.90;;;;;;5038785;28;20500;-76
2023/03/21 09:09:12;;;;;;;1.73;1.40;;;6.70;99.90;;;;;;5069533;28;20076;-78
2023/03/21 09:11:40;;;;;;;2.60;1.48;;;8.80;99.90;;;;;;5055379;28;20140;-77
2023/03/21 09:14:08;;;;;;;2.92;1.48;;;10.10;99.90;;;;;;5091392;28;20048;-77
2023/03/21 09:16:35;;;;;;;2.40;1.67;;;10.30;99.90;;;;;;5088794;28;20436;-77
2023/03/21 09:19:07;;;;;;;2.08;1.90;;;10.20;99.90;;;;;;5093748;28;20063;-78
2023/03/21 09:21:37;;;;;;;2.03;1.70;;;10.10;99.90;;;;;;5058519;28;20130;-77
2023/03/21 09:24:06;;;;;;;1.80;1.55;;;9.90;99.90;;;;;;5074729;28;20052;-78
2023/03/21 09:26:34;;;;;;;2.22;1.20;;;10.40;99.90;;;;;;5085071;28;20408;-78
2023/03/21 09:29:03;;;;;;;6.18;1.60;;;10.70;99.90;;;;;;5073798;28;20052;-78
2023/03/21 09:31:31;;;;;;;1.63;1.52;;;10.60;99.90;;;;;;5093781;28;20056;-78
2023/03/21 09:33:59;;;;;;;1.50;1.30;;;10.10;99.90;;;;;;5090535;28;20052;-79
2023/03/21 09:36:29;;;;;;;1.33;1.23;;;9.70;99.90;;;;;;5093301;28;20062;-79
2023/03/21 09:38:56;;;;;;;1.88;1.38;;;9.30;99.90;;;;;;5093640;28;20106;-79
2023/03/21 09:41:52;;;;;;;1.60;1.50;;;9.00;99.90;;;;;;5092302;28;20101;-78
2023/03/21 09:44:40;;;;;;;1.80;1.70;;;8.90;99.90;;;;;;5084681;28;20044;-79
2023/03/21 09:47:20;;;;;;;4.15;2.47;;;8.70;99.90;;;;;;5093676;28;20051;-78
2023/03/21 09:49:52;;;;;;;3.28;2.97;;;9.10;99.90;;;;;;5089204;28;20055;-79
2023/03/21 09:52:31;;;;;;;3.00;2.80;;;9.50;99.90;;;;;;5062639;28;20048;-79
2023/03/21 09:54:59;;;;;;;3.03;2.60;;;9.40;99.90;;;;;;5093352;28;20543;-77
2023/03/21 09:57:33;;;;;;;2.28;1.88;;;9.30;99.90;;;;;;5093548;28;20052;-78
2023/03/21 10:00:10;;;;;;;1.50;1.40;;;9.30;99.90;;;;;;5092690;28;20135;-78
2023/03/21 10:02:45;;;;;;;1.48;1.10;;;10.20;99.90;;;;;;5078018;28;20059;-78
2023/03/21 10:05:18;;;;;;;1.98;1.30;;;11.30;99.90;;;;;;5073135;28;20059;-78
2023/03/21 10:07:56;;;;;;;3.40;1.45;;;11.30;99.90;;;;;;5047009;28;20504;-78
2023/03/21 10:10:29;;;;;;;5.60;1.50;;;11.00;99.90;;;;;;5090712;28;20048;-78
2023/03/21 10:12:57;;;;;;;1.30;1.20;;;10.40;99.90;;;;;;5083688;28;20048;-79
2023/03/21 10:15:27;;;;;;;3.25;1.20;;;9.90;99.90;;;;;;5093020;28;20516;-79
2023/03/21 10:18:00;;;;;;;5.55;1.40;;;9.40;99.90;;;;;;5093387;28;20055;-79
2023/03/21 10:20:31;;;;;;;3.13;1.20;;;9.00;99.90;;;;;;5082947;28;20049;-80
2023/03/21 10:23:05;;;;;;;3.13;1.10;;;9.00;99.90;;;;;;5074994;28;20076;-79
2023/03/21 10:25:36;;;;;;;2.72;1.15;;;10.90;99.90;;;;;;5092336;28;20087;-79
2023/03/21 10:28:07;;;;;;;4.72;1.13;;;12.40;97.40;;;;;;5074543;28;20051;-79
2023/03/21 10:30:42;;;;;;;2.78;1.10;;;12.60;92.00;;;;;;5092147;28;20723;-78
2023/03/21 10:33:15;;;;;;;1.73;0.90;;;13.80;90.70;;;;;;5092792;28;20120;-79
2023/03/21 10:35:50;;;;;;;3.78;1.25;;;15.40;82.70;;;;;;5092888;28;20415;-79
2023/03/21 10:38:22;;;;;;;1.88;1.48;;;15.30;72.50;;;;;;5084751;28;20535;-79
2023/03/21 10:40:50;;;;;;;3.72;1.50;;;14.10;73.50;;;;;;5078364;28;20381;-78
2023/03/21 10:43:39;;;;;;;3.45;1.10;;;12.80;76.00;;;;;;5092646;28;20138;-78
2023/03/21 10:46:12;;;;;;;1.90;0.98;;;12.80;80.60;;;;;;5071845;28;20446;-82
2023/03/21 10:48:46;;;;;;;2.78;1.17;;;14.00;76.80;;;;;;5087736;28;20043;-83
2023/03/21 10:51:20;;;;;;;2.10;0.73;;;14.70;73.50;;;;;;5066627;28;20051;-85
2023/03/21 10:53:53;;;;;;;1.50;0.98;;;15.80;72.80;;;;;;5089251;28;20044;-85
2023/03/21 10:56:24;;;;;;;8.30;1.52;;;16.50;66.80;;;;;;5088478;28;20048;-84
2023/03/21 10:58:54;;;;;;;7.93;1.75;;;16.90;65.10;;;;;;5091925;28;20054;-84
2023/03/21 11:01:30;;;;;;;4.15;1.85;;;17.20;64.20;;;;;;5056790;28;20052;-85
2023/03/21 11:04:00;;;;;;;2.53;1.40;;;17.00;62.90;;;;;;5092076;28;20044;-83
2023/03/21 11:06:31;;;;;;;3.67;1.60;;;16.10;62.30;;;;;;5069628;28;20044;-82
2023/03/21 11:09:07;;;;;;;4.55;1.40;;;14.90;64.80;;;;;;5092046;28;20097;-84
2023/03/21 11:11:38;;;;;;;1.48;1.10;;;15.10;66.60;;;;;;5085662;28;20056;-80
2023/03/21 11:14:31;;;;;;;3.08;1.40;;;15.20;63.80;;;;;;5072592;28;20424;-83
2023/03/21 11:16:59;;;;;;;6.53;1.27;;;14.40;64.80;;;;;;5075136;28;20059;-80
2023/03/21 11:19:33;;;;;;;1.95;1.67;;;13.70;68.70;;;;;;5092048;28;20048;-80
2023/03/21 11:22:06;;;;;;;9.13;1.35;;;13.20;70.40;;;;;;5092130;28;20071;-80
2023/03/21 11:24:36;;;;;;;1.60;1.38;;;13.80;72.50;;;;;;5087377;28;20091;-80
2023/03/21 11:27:08;;;;;;;2.15;1.50;;;14.60;70.40;;;;;;5069230;28;20185;-79
2023/03/21 11:29:39;;;;;;;3.92;1.48;;;15.70;66.70;;;;;;5081312;28;20048;-79
2023/03/21 11:32:12;;;;;;;1.63;1.30;;;16.70;61.30;;;;;;5087917;28;20052;-80
2023/03/21 11:34:47;;;;;;;9.55;2.38;;;17.60;59.30;;;;;;5077683;28;20083;-77
2023/03/21 11:37:26;;;;;;;4.45;1.92;;;17.50;60.00;;;;;;5093523;28;20503;-77
2023/03/21 11:40:19;;;;;;;2.55;0.95;;;17.10;59.10;;;;;;5093178;28;20416;-80
2023/03/21 11:42:50;;;;;;;8.05;1.50;;;17.10;57.80;;;;;;5088997;28;20058;-78
2023/03/21 11:45:22;;;;;;;2.28;1.30;;;17.90;57.80;;;;;;5090429;28;20051;-78
2023/03/21 11:47:52;;;;;;;5.80;1.63;;;18.70;55.40;;;;;;5088802;28;20044;-76
2023/03/21 11:50:29;;;;;;;6.43;1.70;;;19.00;55.10;;;;;;5064491;28;20044;-78
2023/03/21 11:53:26;;;;;;;5.90;2.00;;;19.40;55.00;;;;;;5070988;28;20056;-77
2023/03/21 11:56:24;;;;;;;7.78;1.52;;;17.20;54.50;;;;;;5087760;28;20416;-77
2023/03/21 11:59:29;;;;;;;7.03;2.08;;;16.20;56.70;;;;;;5070203;28;20603;-78
2023/03/21 12:02:40;;;;;;;6.32;1.55;;;15.10;61.10;;;;;;5084155;28;20133;-78
2023/03/21 12:05:18;;;;;;;4.78;1.90;;;15.40;59.70;;;;;;5087856;28;20113;-78
2023/03/21 12:07:55;;;;;;;8.65;1.88;;;14.40;62.10;;;;;;5072551;28;20040;-78
2023/03/21 12:10:36;;;;;;;6.60;1.60;;;14.00;65.20;;;;;;5085565;28;20097;-79
2023/03/21 12:13:22;;;;;;;7.85;1.50;;;15.10;65.30;;;;;;5090906;28;20051;-80
2023/03/21 12:16:00;;;;;;;12.32;1.60;;;16.80;61.00;;;;;;5073082;28;20500;-80
2023/03/21 12:18:59;;;;;;;5.68;1.30;;;18.00;57.60;;;;;;5071449;28;20036;-78
2023/03/21 12:21:35;;;;;;;6.22;1.27;;;19.00;56.00;;;;;;5091885;28;21230;-78
2023/03/21 12:24:10;;;;;;;15.07;2.35;;;19.90;53.90;;;;;;5082233;28;20064;-78
2023/03/21 12:26:44;;;;;;;10.35;1.30;;;20.00;54.20;;;;;;5075709;28;20056;-80
2023/03/21 12:29:42;;;;;;;4.72;1.65;;;18.50;54.60;;;;;;5065376;28;20551;-78
2023/03/21 12:32:33;;;;;;;6.28;1.20;;;17.40;56.70;;;;;;5094280;28;20055;-80
2023/03/21 12:35:31;;;;;;;8.77;1.63;;;17.50;57.80;;;;;;5079888;28;20048;-77
2023/03/21 12:38:15;;;;;;;11.30;2.03;;;17.30;58.30;;;;;;5089935;28;20040;-76
2023/03/21 12:41:07;;;;;;;5.90;1.20;;;16.70;58.20;;;;;;5086135;28;20059;-76
2023/03/21 12:43:53;;;;;;;4.13;1.50;;;15.90;58.90;;;;;;5082937;28;20133;-79
2023/03/21 12:46:27;;;;;;;4.88;1.13;;;15.40;60.10;;;;;;5085633;28;20055;-80
2023/03/21 12:49:07;;;;;;;4.43;1.65;;;15.20;61.50;;;;;;5046970;28;20483;-80
2023/03/21 12:51:39;;;;;;;6.43;0.93;;;14.90;61.90;;;;;;5097390;28;20327;-79
2023/03/21 12:54:17;;;;;;;4.82;1.30;;;15.00;61.30;;;;;;5091094;28;20061;-79
2023/03/21 12:56:55;;;;;;;7.13;1.33;;;15.30;60.90;;;;;;5090308;28;20044;-82
2023/03/21 12:59:33;;;;;;;5.38;1.17;;;16.10;60.00;;;;;;5091189;28;20135;-79
2023/03/21 13:02:18;;;;;;;3.65;1.45;;;16.80;59.00;;;;;;5088100;28;20063;-79
2023/03/21 13:04:56;;;;;;;9.30;1.63;;;18.00;57.80;;;;;;5071313;28;20048;-79
2023/03/21 13:07:27;;;;;;;11.38;1.65;;;19.00;55.60;;;;;;5090942;28;20098;-80
2023/03/21 13:09:55;;;;;;;7.15;1.45;;;19.40;53.80;;;;;;5092047;28;20063;-80
2023/03/21 13:12:46;;;;;;;2.90;1.38;;;19.90;53.00;;;;;;5087093;28;20052;-81
2023/03/21 13:15:33;;;;;;;5.05;1.65;;;19.20;52.90;;;;;;5090486;28;20078;-80
2023/03/21 13:18:15;;;;;;;4.35;1.00;;;18.60;54.50;;;;;;5088690;28;20101;-79
2023/03/21 13:20:47;;;;;;;5.47;1.45;;;18.60;54.00;;;;;;5083552;28;20072;-79
2023/03/21 13:23:20;;;;;;;2.83;1.42;;;19.10;53.40;;;;;;5089994;28;20460;-80
2023/03/21 13:25:50;;;;;;;6.25;1.38;;;19.70;52.90;;;;;;5069382;28;20106;-81
2023/03/21 13:28:22;;;;;;;2.08;1.00;;;20.00;51.90;;;;;;5071458;28;20449;-80
2023/03/21 13:30:51;;;;;;;5.57;1.75;;;20.40;51.40;;;;;;5093844;28;20135;-79
2023/03/21 13:33:28;;;;;;;3.67;1.10;;;20.80;50.00;;;;;;5101127;28;20138;-81
2023/03/21 13:36:04;;;;;;;6.35;1.55;;;21.00;49.70;;;;;;5093135;28;20093;-79
2023/03/21 13:38:34;;;;;;;8.52;0.98;;;20.50;49.70;;;;;;5092704;28;20129;-78
2023/03/21 13:41:08;;;;;;;4.65;1.00;;;20.60;49.80;;;;;;5089046;28;20576;-79
2023/03/21 13:43:44;;;;;;;7.75;1.17;;;20.90;49.10;;;;;;5072924;28;20059;-79